createdAt,value
2023-03-25T00:01:38.919Z,11.65
2023-03-25T00:03:42.822Z,11.46
2023-03-25T00:05:45.429Z,11.59
2023-03-25T00:07:51.665Z,11.63
2023-03-25T00:09:54.239Z,11.59
2023-03-25T00:11:58.140Z,11.45
2023-03-25T00:14:00.912Z,11.58
2023-03-25T00:16:07.150Z,11.41
2023-03-25T00:18:09.734Z,11.16
2023-03-25T00:20:14.027Z,11.12
2023-03-25T00:22:16.601Z,10.88
2023-03-25T00:24:19.412Z,10.76
2023-03-25T00:26:22.328Z,10.65
2023-03-25T00:28:27.012Z,10.57
2023-03-25T00:30:29.682Z,10.62
2023-03-25T00:32:32.374Z,10.55
2023-03-25T00:34:41.649Z,10.62
2023-03-25T00:36:45.608Z,10.58
2023-03-25T00:38:49.964Z,10.52
2023-03-25T00:40:53.098Z,10.44
2023-03-25T00:42:55.897Z,10.40
2023-03-25T00:44:59.839Z,10.40
2023-03-25T00:47:02.414Z,10.55
2023-03-25T00:49:05.488Z,10.66
2023-03-25T00:51:09.877Z,10.66
2023-03-25T00:53:12.605Z,10.48
2023-03-25T00:55:15.607Z,10.53
2023-03-25T00:57:18.297Z,10.33
2023-03-25T00:59:21.118Z,10.47
2023-03-25T01:01:28.547Z,10.42
2023-03-25T01:03:31.372Z,10.31
2023-03-25T01:05:34.169Z,10.52
2023-03-25T01:07:37.232Z,10.40
2023-03-25T01:09:41.578Z,10.44
2023-03-25T01:11:45.782Z,10.49
2023-03-25T01:13:48.431Z,10.43
2023-03-25T01:15:51.397Z,10.44
2023-03-25T01:17:55.692Z,10.39
2023-03-25T01:19:58.474Z,10.46
2023-03-25T01:22:01.229Z,10.41
2023-03-25T01:24:03.903Z,10.41
2023-03-25T01:26:07.021Z,10.44
2023-03-25T01:28:09.609Z,10.32
2023-03-25T01:30:13.606Z,10.29
2023-03-25T01:32:16.360Z,10.32
2023-03-25T01:34:20.391Z,10.27
2023-03-25T01:36:24.624Z,10.20
2023-03-25T01:38:27.356Z,10.10
2023-03-25T01:40:30.084Z,10.08
2023-03-25T01:42:32.717Z,10.23
2023-03-25T01:45:21.024Z,10.08
2023-03-25T01:47:26.708Z,10.28
2023-03-25T01:49:38.879Z,10.28
2023-03-25T01:51:45.485Z,10.31
2023-03-25T01:53:48.824Z,10.52
2023-03-25T01:55:54.569Z,10.49
2023-03-25T01:57:59.605Z,10.30
2023-03-25T02:00:08.588Z,10.34
2023-03-25T02:02:17.675Z,10.33
2023-03-25T02:04:27.305Z,10.31
2023-03-25T02:06:39.192Z,10.18
2023-03-25T02:08:41.813Z,10.08
2023-03-25T02:10:46.796Z,9.98
2023-03-25T02:12:49.355Z,10.11
2023-03-25T02:14:52.306Z,10.05
2023-03-25T02:17:05.114Z,10.07
2023-03-25T02:19:32.992Z,10.06
2023-03-25T02:22:11.638Z,10.03
2023-03-25T02:24:45.893Z,10.07
2023-03-25T02:27:14.370Z,9.89
2023-03-25T02:29:30.154Z,9.93
2023-03-25T02:31:59.896Z,9.92
2023-03-25T02:34:37.794Z,10.01
2023-03-25T02:37:05.011Z,10.01
2023-03-25T02:39:14.313Z,9.87
2023-03-25T02:41:23.952Z,9.87
2023-03-25T02:43:33.316Z,9.85
2023-03-25T02:45:42.136Z,9.86
2023-03-25T02:47:48.636Z,9.85
2023-03-25T02:49:56.873Z,9.77
2023-03-25T02:52:06.368Z,9.90
2023-03-25T02:54:13.608Z,9.69
2023-03-25T02:56:21.371Z,9.66
2023-03-25T02:58:24.804Z,9.57
2023-03-25T03:00:29.943Z,9.89
2023-03-25T03:02:34.117Z,9.73
2023-03-25T03:04:49.997Z,9.57
2023-03-25T03:06:54.811Z,9.53
2023-03-25T03:09:25.390Z,9.62
2023-03-25T03:11:30.946Z,9.49
2023-03-25T03:13:48.398Z,9.79
2023-03-25T03:16:00.975Z,9.51
2023-03-25T03:18:13.381Z,9.56
2023-03-25T03:20:22.250Z,9.43
2023-03-25T03:22:40.757Z,9.33
2023-03-25T03:24:48.807Z,9.41
2023-03-25T03:26:58.386Z,9.54
2023-03-25T03:29:08.342Z,9.50
2023-03-25T03:31:48.835Z,9.48
2023-03-25T03:33:50.620Z,9.36
2023-03-25T03:35:58.666Z,9.19
2023-03-25T03:38:04.835Z,9.21
2023-03-25T03:40:14.540Z,9.22
2023-03-25T03:42:22.559Z,9.25
2023-03-25T03:44:29.584Z,9.19
2023-03-25T03:46:37.619Z,9.20
2023-03-25T03:48:45.494Z,9.23
2023-03-25T03:50:53.882Z,9.26
2023-03-25T03:53:03.493Z,9.33
2023-03-25T03:55:13.924Z,9.32
2023-03-25T03:57:21.395Z,9.30
2023-03-25T03:59:28.825Z,9.19
2023-03-25T04:01:35.752Z,9.21
2023-03-25T04:03:43.837Z,9.27
2023-03-25T04:05:54.759Z,9.24
2023-03-25T04:08:00.903Z,9.33
2023-03-25T04:10:14.720Z,9.29
2023-03-25T04:12:23.099Z,9.22
2023-03-25T04:14:26.245Z,9.19
2023-03-25T04:16:29.547Z,9.22
2023-03-25T04:18:33.674Z,9.36
2023-03-25T04:20:37.350Z,9.33
2023-03-25T04:22:45.262Z,9.25
2023-03-25T04:24:49.669Z,9.26
2023-03-25T04:26:53.069Z,9.21
2023-03-25T04:29:00.573Z,9.32
2023-03-25T04:31:07.499Z,9.15
2023-03-25T04:33:10.166Z,9.11
2023-03-25T04:35:12.870Z,9.20
2023-03-25T04:37:15.554Z,9.17
2023-03-25T04:39:22.420Z,9.12
2023-03-25T04:41:25.694Z,9.17
2023-03-25T04:43:28.398Z,9.14
2023-03-25T04:45:36.311Z,9.13
2023-03-25T04:47:44.999Z,9.12
2023-03-25T04:49:48.084Z,9.19
2023-03-25T04:51:51.760Z,9.24
2023-03-25T04:53:54.380Z,9.26
2023-03-25T04:55:58.640Z,9.23
2023-03-25T04:58:01.253Z,9.46
2023-03-25T05:00:05.217Z,9.57
2023-03-25T05:02:13.603Z,9.23
2023-03-25T05:04:17.979Z,9.24
2023-03-25T05:06:20.558Z,9.51
2023-03-25T05:08:23.250Z,9.37
2023-03-25T05:10:29.497Z,9.37
2023-03-25T05:12:32.102Z,9.23
2023-03-25T05:14:34.654Z,9.08
2023-03-25T05:16:37.557Z,8.98
2023-03-25T05:18:41.467Z,9.13
2023-03-25T05:20:46.734Z,9.24
2023-03-25T05:22:49.369Z,9.34
2023-03-25T05:24:53.393Z,9.18
2023-03-25T05:26:56.623Z,9.30
2023-03-25T05:29:01.696Z,9.24
2023-03-25T05:31:08.180Z,9.10
2023-03-25T05:33:11.235Z,9.05
2023-03-25T05:35:15.125Z,9.11
2023-03-25T05:37:17.815Z,9.04
2023-03-25T05:39:20.361Z,9.03
2023-03-25T05:41:33.324Z,9.08
2023-03-25T05:43:35.966Z,9.09
2023-03-25T05:45:38.531Z,9.26
2023-03-25T05:47:41.239Z,9.13
2023-03-25T05:49:43.819Z,9.16
2023-03-25T05:51:49.766Z,9.21
2023-03-25T05:53:53.223Z,9.23
2023-03-25T05:55:55.815Z,9.18
2023-03-25T05:57:58.788Z,9.30
2023-03-25T06:00:01.621Z,9.42
2023-03-25T06:02:04.237Z,9.32
2023-03-25T06:04:10.011Z,9.44
2023-03-25T06:06:14.066Z,9.48
2023-03-25T06:08:19.673Z,9.45
2023-03-25T06:10:22.787Z,9.53
2023-03-25T06:12:27.439Z,9.62
2023-03-25T06:14:30.036Z,9.47
2023-03-25T06:16:35.609Z,9.56
2023-03-25T06:18:38.569Z,9.52
2023-03-25T06:20:41.120Z,9.53
2023-03-25T06:22:45.834Z,9.52
2023-03-25T06:24:49.824Z,9.56
2023-03-25T06:26:52.822Z,9.55
2023-03-25T06:28:55.611Z,9.57
2023-03-25T06:30:58.370Z,9.50
2023-03-25T06:33:03.113Z,9.59
2023-03-25T06:35:07.859Z,9.44
2023-03-25T06:37:11.452Z,9.27
2023-03-25T06:39:14.105Z,9.44
2023-03-25T06:41:20.362Z,9.65
2023-03-25T06:43:23.231Z,9.60
2023-03-25T06:45:25.802Z,9.53
2023-03-25T06:47:28.378Z,9.44
2023-03-25T06:49:31.197Z,9.36
2023-03-25T06:51:33.761Z,9.41
2023-03-25T06:53:36.377Z,9.44
2023-03-25T06:55:39.564Z,9.38
2023-03-25T06:57:43.585Z,9.36
2023-03-25T06:59:47.268Z,9.40
2023-03-25T07:01:50.018Z,9.50
2023-03-25T07:03:52.721Z,9.57
2023-03-25T07:05:55.293Z,9.50
2023-03-25T07:07:58.809Z,9.55
2023-03-25T07:10:01.606Z,9.73
2023-03-25T07:12:06.417Z,9.63
2023-03-25T07:14:12.332Z,9.62
2023-03-25T07:16:15.121Z,9.83
2023-03-25T07:18:17.746Z,9.79
2023-03-25T07:20:20.325Z,9.69
2023-03-25T07:22:22.905Z,9.82
2023-03-25T07:24:25.623Z,9.67
2023-03-25T07:26:28.180Z,9.78
2023-03-25T07:28:30.827Z,9.80
2023-03-25T07:30:34.772Z,9.62
2023-03-25T07:32:37.354Z,9.67
2023-03-25T07:34:39.977Z,9.70
2023-03-25T07:36:42.521Z,9.65
2023-03-25T07:38:45.254Z,9.69
2023-03-25T07:40:50.195Z,9.72
2023-03-25T07:42:53.044Z,9.55
2023-03-25T07:44:55.610Z,9.61
2023-03-25T07:46:59.544Z,9.59
2023-03-25T07:49:02.235Z,9.77
2023-03-25T07:51:06.513Z,9.62
2023-03-25T07:53:09.102Z,9.71
2023-03-25T07:55:11.704Z,9.84
2023-03-25T07:57:14.290Z,10.01
2023-03-25T07:59:16.842Z,9.92
2023-03-25T08:01:19.407Z,9.82
2023-03-25T08:03:23.393Z,9.82
2023-03-25T08:05:26.037Z,10.03
2023-03-25T08:07:28.824Z,10.06
2023-03-25T08:09:33.597Z,10.05
2023-03-25T08:11:36.498Z,10.20
2023-03-25T08:13:42.010Z,10.32
2023-03-25T08:15:44.577Z,10.08
2023-03-25T08:17:47.758Z,10.29
2023-03-25T08:19:51.708Z,10.31
2023-03-25T08:21:54.287Z,10.23
2023-03-25T08:24:02.337Z,10.41
2023-03-25T08:26:06.435Z,10.48
2023-03-25T08:28:08.997Z,10.27
2023-03-25T08:30:15.049Z,10.34
2023-03-25T08:32:17.625Z,10.21
2023-03-25T08:34:22.118Z,10.31
2023-03-25T08:36:26.037Z,10.45
2023-03-25T08:38:34.469Z,10.50
2023-03-25T08:40:37.703Z,10.56
2023-03-25T08:42:43.511Z,10.38
2023-03-25T08:44:46.077Z,10.58
2023-03-25T08:46:48.783Z,10.63
2023-03-25T08:48:51.354Z,10.55
2023-03-25T08:50:54.276Z,10.52
2023-03-25T08:52:58.941Z,10.78
2023-03-25T08:55:01.512Z,10.75
2023-03-25T08:57:04.350Z,10.73
2023-03-25T08:59:06.958Z,10.67
2023-03-25T09:01:09.547Z,10.77
2023-03-25T09:03:12.318Z,10.75
2023-03-25T09:05:16.005Z,10.85
2023-03-25T09:07:19.867Z,10.87
2023-03-25T09:09:24.198Z,10.85
2023-03-25T09:11:36.152Z,10.86
2023-03-25T09:13:39.288Z,10.76
2023-03-25T09:15:42.264Z,10.91
2023-03-25T09:17:45.244Z,10.99
2023-03-25T09:19:47.968Z,10.96
2023-03-25T09:21:50.789Z,11.13
2023-03-25T09:23:53.695Z,11.16
2023-03-25T09:26:03.816Z,11.21
2023-03-25T09:28:06.598Z,11.31
2023-03-25T09:30:10.285Z,11.32
2023-03-25T09:32:13.992Z,11.18
2023-03-25T09:34:16.570Z,11.23
2023-03-25T09:36:19.231Z,11.25
2023-03-25T09:38:22.278Z,11.23
2023-03-25T09:40:25.159Z,11.12
2023-03-25T09:43:01.639Z,11.14
2023-03-25T09:45:15.883Z,11.14
2023-03-25T09:47:21.218Z,11.13
2023-03-25T09:49:31.318Z,11.34
2023-03-25T09:51:36.981Z,11.21
2023-03-25T09:53:44.526Z,11.09
2023-03-25T09:55:48.629Z,11.11
2023-03-25T09:57:57.427Z,11.14
2023-03-25T10:00:06.762Z,11.17
2023-03-25T10:02:24.577Z,11.31
2023-03-25T10:04:47.550Z,11.23
2023-03-25T10:07:03.509Z,11.13
2023-03-25T10:09:27.205Z,11.24
2023-03-25T10:11:37.442Z,11.37
2023-03-25T10:13:49.233Z,11.35
2023-03-25T10:15:57.787Z,11.35
2023-03-25T10:18:19.956Z,11.40
2023-03-25T10:20:26.156Z,11.52
2023-03-25T10:22:36.515Z,11.39
2023-03-25T10:24:45.577Z,11.29
2023-03-25T10:26:53.676Z,11.34
2023-03-25T10:29:03.695Z,11.37
2023-03-25T10:31:10.180Z,11.30
2023-03-25T10:33:19.894Z,11.28
2023-03-25T10:35:25.797Z,11.27
2023-03-25T10:37:32.659Z,11.10
2023-03-25T10:39:38.172Z,11.20
2023-03-25T10:41:43.376Z,10.97
2023-03-25T10:43:46.015Z,10.72
2023-03-25T10:45:52.390Z,10.63
2023-03-25T10:48:01.050Z,10.43
2023-03-25T10:50:04.557Z,10.26
2023-03-25T10:52:07.549Z,10.49
2023-03-25T10:54:13.277Z,10.68
2023-03-25T10:56:18.702Z,10.79
2023-03-25T10:58:21.538Z,10.67
2023-03-25T11:00:26.206Z,10.72
2023-03-25T11:02:32.265Z,10.76
2023-03-25T11:04:39.530Z,10.79
2023-03-25T11:06:46.750Z,10.88
2023-03-25T11:09:18.438Z,10.75
2023-03-25T11:11:21.193Z,10.89
2023-03-25T11:13:26.715Z,10.93
2023-03-25T11:15:32.734Z,11.18
2023-03-25T11:17:36.753Z,11.24
2023-03-25T11:19:42.939Z,11.38
2023-03-25T11:21:49.026Z,11.18
2023-03-25T11:23:53.055Z,11.38
2023-03-25T11:25:56.794Z,11.31
2023-03-25T11:28:02.971Z,11.36
2023-03-25T11:30:15.460Z,11.35
2023-03-25T11:32:18.164Z,11.34
2023-03-25T11:34:24.055Z,11.13
2023-03-25T11:36:29.966Z,11.12
2023-03-25T11:38:34.394Z,11.21
2023-03-25T11:40:36.990Z,11.34
2023-03-25T11:42:42.613Z,11.26
2023-03-25T11:44:52.118Z,11.22
2023-03-25T11:46:58.324Z,11.31
2023-03-25T11:49:11.866Z,11.46
2023-03-25T11:51:20.248Z,11.37
2023-03-25T11:53:28.003Z,11.45
2023-03-25T11:55:37.035Z,11.55
2023-03-25T11:57:42.728Z,11.62
2023-03-25T11:59:46.876Z,11.55
2023-03-25T12:01:51.409Z,11.55
2023-03-25T12:04:06.294Z,11.66
2023-03-25T12:06:20.587Z,11.73
2023-03-25T12:08:23.262Z,11.69
2023-03-25T12:10:38.982Z,11.54
2023-03-25T12:12:48.569Z,11.66
2023-03-25T12:15:04.866Z,11.61
2023-03-25T12:17:17.699Z,11.70
2023-03-25T12:19:29.883Z,11.79
2023-03-25T12:21:47.796Z,11.83
2023-03-25T12:23:59.897Z,11.94
2023-03-25T12:26:11.073Z,12.05
2023-03-25T12:28:40.069Z,12.14
2023-03-25T12:30:55.256Z,12.22
2023-03-25T12:33:07.038Z,12.27
2023-03-25T12:35:17.561Z,12.22
2023-03-25T12:37:31.598Z,12.20
2023-03-25T12:39:50.209Z,12.09
2023-03-25T12:42:02.809Z,12.01
2023-03-25T12:44:11.486Z,11.90
2023-03-25T12:46:25.533Z,11.83
2023-03-25T12:48:40.939Z,11.82
2023-03-25T12:50:54.462Z,11.90
2023-03-25T12:53:11.794Z,11.96
2023-03-25T12:55:32.604Z,12.10
2023-03-25T12:57:52.515Z,12.20
2023-03-25T13:00:09.113Z,12.23
2023-03-25T13:02:27.069Z,12.37
2023-03-25T13:04:49.733Z,12.52
2023-03-25T13:07:00.139Z,12.75
2023-03-25T13:09:12.514Z,13.15
2023-03-25T13:11:21.343Z,13.15
2023-03-25T13:13:27.609Z,13.12
2023-03-25T13:15:36.032Z,13.01
2023-03-25T13:17:46.422Z,12.78
2023-03-25T13:19:49.574Z,12.77
2023-03-25T13:21:55.374Z,12.66
2023-03-25T13:24:02.726Z,12.54
2023-03-25T13:26:11.733Z,12.39
2023-03-25T13:28:18.391Z,12.47
2023-03-25T13:30:32.565Z,12.47
2023-03-25T13:32:40.214Z,12.47
2023-03-25T13:34:50.091Z,12.30
2023-03-25T13:37:04.843Z,12.47
2023-03-25T13:39:14.696Z,13.03
2023-03-25T13:41:26.677Z,13.55
2023-03-25T13:43:34.103Z,14.06
2023-03-25T13:45:45.022Z,14.54
2023-03-25T13:47:55.373Z,14.98
2023-03-25T13:50:02.385Z,15.39
2023-03-25T13:52:07.485Z,15.77
2023-03-25T13:54:16.126Z,16.01
2023-03-25T13:56:54.871Z,16.44
2023-03-25T13:59:18.547Z,16.85
2023-03-25T14:01:37.882Z,17.01
2023-03-25T14:04:04.156Z,17.15
2023-03-25T14:06:39.234Z,17.40
2023-03-25T14:09:35.715Z,17.34
2023-03-25T14:11:44.058Z,16.80
2023-03-25T14:13:53.487Z,16.23
2023-03-25T14:16:04.058Z,15.76
2023-03-25T14:18:13.686Z,15.57
2023-03-25T14:20:24.452Z,15.65
2023-03-25T14:22:29.736Z,15.83
2023-03-25T14:24:34.864Z,16.05
2023-03-25T14:26:44.490Z,16.24
2023-03-25T14:28:48.697Z,16.13
2023-03-25T14:31:11.226Z,16.21
2023-03-25T14:33:13.910Z,16.30
2023-03-25T14:35:59.272Z,16.28
2023-03-25T14:38:42.707Z,16.34
2023-03-25T14:41:02.726Z,16.54
2023-03-25T14:43:21.200Z,16.56
2023-03-25T14:45:59.494Z,16.64
2023-03-25T14:48:03.489Z,16.70
2023-03-25T14:50:32.795Z,16.80
2023-03-25T14:52:41.590Z,16.88
2023-03-25T14:54:44.677Z,16.93
2023-03-25T14:56:54.608Z,16.98
2023-03-25T14:59:01.540Z,16.96
2023-03-25T15:01:07.694Z,16.76
2023-03-25T15:03:14.211Z,16.76
2023-03-25T15:05:19.996Z,16.72
2023-03-25T15:07:42.916Z,16.82
2023-03-25T15:09:50.701Z,16.75
2023-03-25T15:11:59.975Z,16.46
2023-03-25T15:14:06.882Z,16.35
2023-03-25T15:16:18.953Z,16.04
2023-03-25T15:18:54.644Z,15.63
2023-03-25T15:21:04.231Z,15.47
2023-03-25T15:23:32.638Z,15.18
2023-03-25T15:25:37.514Z,15.13
2023-03-25T15:28:11.797Z,14.89
2023-03-25T15:30:51.829Z,14.68
2023-03-25T15:33:11.870Z,14.65
2023-03-25T15:35:34.561Z,14.79
2023-03-25T15:38:02.082Z,14.76
2023-03-25T15:40:14.817Z,14.76
2023-03-25T15:42:50.305Z,14.51
2023-03-25T15:45:16.336Z,14.33
2023-03-25T15:47:59.064Z,14.21
2023-03-25T15:50:36.288Z,14.54
2023-03-25T15:53:05.774Z,14.49
2023-03-25T15:55:10.465Z,14.45
2023-03-25T15:57:22.593Z,14.67
2023-03-25T15:59:34.876Z,14.66
2023-03-25T16:01:42.690Z,14.71
2023-03-25T16:03:46.551Z,14.70
2023-03-25T16:05:53.035Z,14.64
2023-03-25T16:07:58.989Z,14.65
2023-03-25T16:10:14.718Z,14.65
2023-03-25T16:12:22.178Z,14.46
2023-03-25T16:14:25.271Z,14.53
2023-03-25T16:16:34.391Z,14.61
2023-03-25T16:18:41.268Z,14.39
2023-03-25T16:20:44.710Z,14.26
2023-03-25T16:22:50.507Z,14.08
2023-03-25T16:24:55.617Z,14.03
2023-03-25T16:26:58.164Z,14.19
2023-03-25T16:29:08.561Z,14.05
2023-03-25T16:31:28.393Z,13.81
2023-03-25T16:33:33.056Z,13.78
2023-03-25T16:35:39.680Z,13.73
2023-03-25T16:37:42.451Z,13.63
2023-03-25T16:39:45.931Z,13.77
2023-03-25T16:41:50.720Z,13.63
2023-03-25T16:43:54.861Z,13.65
2023-03-25T16:45:59.483Z,13.51
2023-03-25T16:48:07.147Z,13.59
2023-03-25T16:50:18.865Z,13.54
2023-03-25T16:52:26.477Z,13.39
2023-03-25T16:54:36.124Z,13.54
2023-03-25T16:56:40.358Z,13.18
2023-03-25T16:58:57.846Z,13.20
2023-03-25T17:01:02.676Z,13.19
2023-03-25T17:03:05.891Z,13.22
2023-03-25T17:05:16.160Z,13.16
2023-03-25T17:07:22.524Z,13.10
2023-03-25T17:09:34.033Z,13.18
2023-03-25T17:11:37.043Z,13.11
2023-03-25T17:13:45.230Z,13.09
2023-03-25T17:15:49.370Z,13.01
2023-03-25T17:17:56.590Z,13.02
2023-03-25T17:20:06.035Z,12.91
2023-03-25T17:22:17.391Z,13.13
2023-03-25T17:24:23.913Z,13.02
2023-03-25T17:26:33.027Z,13.02
2023-03-25T17:28:39.002Z,13.09
2023-03-25T17:30:45.996Z,12.91
2023-03-25T17:32:51.050Z,12.87
2023-03-25T17:34:58.742Z,12.95
2023-03-25T17:37:03.920Z,12.88
2023-03-25T17:39:15.581Z,12.74
2023-03-25T17:41:19.747Z,12.67
2023-03-25T17:43:25.999Z,12.90
2023-03-25T17:45:28.574Z,12.87
2023-03-25T17:47:31.178Z,12.79
2023-03-25T17:49:34.076Z,12.67
2023-03-25T17:51:36.714Z,12.65
2023-03-25T17:53:39.293Z,12.55
2023-03-25T17:55:41.827Z,12.53
2023-03-25T17:57:44.689Z,12.54
2023-03-25T17:59:48.983Z,12.62
2023-03-25T18:01:51.768Z,12.45
2023-03-25T18:03:54.889Z,12.56
2023-03-25T18:05:58.519Z,12.49
2023-03-25T18:08:01.988Z,12.39
2023-03-25T18:10:14.973Z,12.49
2023-03-25T18:12:17.555Z,12.48
2023-03-25T18:14:20.268Z,12.47
2023-03-25T18:16:25.457Z,12.36
2023-03-25T18:18:28.077Z,12.19
2023-03-25T18:20:33.338Z,12.37
2023-03-25T18:22:36.650Z,12.33
2023-03-25T18:24:39.939Z,12.30
2023-03-25T18:26:44.382Z,12.40
2023-03-25T18:28:47.316Z,12.17
2023-03-25T18:30:54.400Z,12.28
2023-03-25T18:32:59.176Z,12.10
2023-03-25T18:35:01.764Z,12.18
2023-03-25T18:37:04.628Z,12.08
2023-03-25T18:39:08.277Z,11.88
2023-03-25T18:41:13.850Z,12.00
2023-03-25T18:43:17.118Z,11.97
2023-03-25T18:45:20.193Z,11.87
2023-03-25T18:47:24.219Z,11.71
2023-03-25T18:49:29.049Z,11.74
2023-03-25T18:51:32.099Z,11.71
2023-03-25T18:53:34.654Z,11.89
2023-03-25T18:55:38.153Z,11.67
2023-03-25T18:57:42.260Z,11.63
2023-03-25T18:59:44.867Z,11.16
2023-03-25T19:01:47.970Z,11.05
2023-03-25T19:03:51.492Z,10.93
2023-03-25T19:05:55.417Z,10.78
2023-03-25T19:07:57.984Z,10.64
2023-03-25T19:10:00.552Z,10.53
2023-03-25T19:12:03.100Z,10.55
2023-03-25T19:14:06.129Z,10.65
2023-03-25T19:16:09.430Z,10.59
2023-03-25T19:18:18.068Z,10.54
2023-03-25T19:20:23.245Z,10.68
2023-03-25T19:22:29.412Z,10.77
2023-03-25T19:24:32.019Z,10.60
2023-03-25T19:26:34.694Z,10.74
2023-03-25T19:28:37.298Z,10.67
2023-03-25T19:30:44.953Z,10.74
2023-03-25T19:32:48.364Z,10.63
2023-03-25T19:34:51.367Z,10.61
2023-03-25T19:37:02.318Z,10.67
2023-03-25T19:39:06.653Z,10.66
2023-03-25T19:41:11.278Z,10.56
2023-03-25T19:43:13.866Z,10.58
2023-03-25T19:45:17.989Z,10.57
2023-03-25T19:47:20.547Z,10.54
2023-03-25T19:49:32.927Z,10.63
2023-03-25T19:51:43.097Z,10.56
2023-03-25T19:53:45.676Z,10.53
2023-03-25T19:55:51.441Z,10.54
2023-03-25T19:57:55.113Z,10.50
2023-03-25T19:59:57.737Z,10.50
2023-03-25T20:02:01.175Z,10.52
2023-03-25T20:04:04.770Z,10.52
2023-03-25T20:06:08.814Z,10.51
2023-03-25T20:08:11.767Z,10.52
2023-03-25T20:10:20.166Z,10.49
2023-03-25T20:12:24.340Z,10.52
2023-03-25T20:14:27.076Z,10.54
2023-03-25T20:16:30.789Z,10.55
2023-03-25T20:18:33.778Z,10.55
2023-03-25T20:20:36.363Z,10.56
2023-03-25T20:22:39.891Z,10.59
2023-03-25T20:24:42.506Z,10.53
2023-03-25T20:26:45.514Z,10.51
2023-03-25T20:28:49.440Z,10.50
2023-03-25T20:30:52.290Z,10.64
2023-03-25T20:32:55.017Z,10.50
2023-03-25T20:34:57.652Z,10.77
2023-03-25T20:37:01.419Z,10.77
2023-03-25T20:39:05.631Z,10.58
2023-03-25T20:41:08.461Z,10.53
2023-03-25T20:43:13.510Z,10.63
2023-03-25T20:45:18.927Z,10.64
2023-03-25T20:47:21.503Z,10.53
2023-03-25T20:49:24.152Z,10.48
2023-03-25T20:51:26.770Z,10.41
2023-03-25T20:53:30.262Z,10.37
2023-03-25T20:55:32.873Z,10.27
2023-03-25T20:57:36.049Z,10.32
2023-03-25T20:59:38.640Z,10.43
2023-03-25T21:01:42.663Z,10.24
2023-03-25T21:03:45.488Z,10.19
2023-03-25T21:05:48.054Z,10.12
2023-03-25T21:07:51.060Z,10.10
2023-03-25T21:09:53.707Z,10.05
2023-03-25T21:11:56.518Z,10.01
2023-03-25T21:13:59.574Z,9.99
2023-03-25T21:16:03.928Z,10.03
2023-03-25T21:18:11.072Z,10.28
2023-03-25T21:20:14.003Z,10.45
2023-03-25T21:22:17.049Z,10.47
2023-03-25T21:24:21.546Z,10.33
2023-03-25T21:26:24.629Z,10.20
2023-03-25T21:28:27.737Z,10.41
2023-03-25T21:30:33.032Z,10.38
2023-03-25T21:32:35.643Z,10.34
2023-03-25T21:34:40.573Z,10.19
2023-03-25T21:36:43.664Z,10.04
2023-03-25T21:38:47.048Z,9.99
2023-03-25T21:40:55.386Z,10.06
2023-03-25T21:42:57.981Z,10.20
2023-03-25T21:45:02.606Z,10.02
2023-03-25T21:47:09.051Z,10.16
2023-03-25T21:49:15.413Z,10.18
2023-03-25T21:51:20.300Z,10.16
2023-03-25T21:53:24.715Z,10.20
2023-03-25T21:55:27.508Z,10.07
2023-03-25T21:57:30.524Z,10.05
2023-03-25T21:59:33.109Z,9.94
2023-03-25T22:01:35.988Z,10.12
2023-03-25T22:03:40.262Z,9.98
2023-03-25T22:05:42.959Z,10.08
2023-03-25T22:07:46.927Z,10.05
2023-03-25T22:09:49.488Z,10.13
2023-03-25T22:11:52.042Z,10.13
2023-03-25T22:13:54.620Z,10.08
2023-03-25T22:15:57.258Z,10.12
2023-03-25T22:17:59.879Z,10.14
2023-03-25T22:20:02.484Z,10.07
2023-03-25T22:22:10.791Z,10.06
2023-03-25T22:24:14.853Z,10.14
2023-03-25T22:26:19.276Z,9.97
2023-03-25T22:28:21.826Z,9.93
2023-03-25T22:30:24.397Z,9.81
2023-03-25T22:32:27.548Z,9.66
2023-03-25T22:34:30.767Z,9.56
2023-03-25T22:36:35.403Z,9.49
2023-03-25T22:38:38.003Z,9.65
2023-03-25T22:40:41.963Z,9.60
2023-03-25T22:42:44.534Z,9.73
2023-03-25T22:44:47.112Z,9.74
2023-03-25T22:46:50.459Z,9.91
2023-03-25T22:48:53.157Z,9.74
2023-03-25T22:50:56.093Z,9.80
2023-03-25T22:52:58.681Z,9.74
2023-03-25T22:55:01.293Z,9.69
2023-03-25T22:57:05.664Z,9.58
2023-03-25T22:59:09.441Z,9.63
2023-03-25T23:01:19.945Z,9.67
2023-03-25T23:03:23.411Z,9.82
2023-03-25T23:05:26.231Z,9.79
2023-03-25T23:07:28.864Z,9.61
2023-03-25T23:09:42.315Z,9.66
2023-03-25T23:11:45.656Z,9.63
2023-03-25T23:13:51.860Z,9.77
2023-03-25T23:16:02.287Z,9.79
2023-03-25T23:18:05.020Z,9.65
2023-03-25T23:20:09.618Z,9.50
2023-03-25T23:22:12.192Z,9.67
2023-03-25T23:24:14.772Z,9.66
2023-03-25T23:26:19.805Z,9.71
2023-03-25T23:28:22.514Z,9.47
2023-03-25T23:30:26.470Z,9.41
2023-03-25T23:32:29.074Z,9.36
2023-03-25T23:34:33.795Z,9.32
2023-03-25T23:36:38.374Z,9.42
2023-03-25T23:38:40.974Z,9.37
2023-03-25T23:40:43.533Z,9.31
2023-03-25T23:42:46.247Z,9.33
2023-03-25T23:44:49.405Z,9.30
2023-03-25T23:46:53.391Z,9.44
2023-03-25T23:49:02.060Z,9.60
2023-03-25T23:51:05.158Z,9.47
2023-03-25T23:53:07.695Z,9.43
2023-03-25T23:55:12.315Z,9.49
2023-03-25T23:57:14.944Z,9.33
2023-03-25T23:59:17.503Z,9.30
